sensor_id;sensor_type;location;lat;lon;timestamp;P1;durP1;ratioP1;P2;durP2;ratioP2
20567;SDS011;10442;49.932;11.592;2024-03-02T00:00:21;20.20;;;17.75;;
20567;SDS011;10442;49.932;11.592;2024-03-02T00:02:52;19.13;;;15.70;;
20567;SDS011;10442;49.932;11.592;2024-03-02T00:05:20;18.00;;;14.80;;
20567;SDS011;10442;49.932;11.592;2024-03-02T00:07:53;19.38;;;14.43;;
20567;SDS011;10442;49.932;11.592;2024-03-02T00:10:26;22.77;;;16.70;;
20567;SDS011;10442;49.932;11.592;2024-03-02T00:13:02;17.13;;;15.30;;
20567;SDS011;10442;49.932;11.592;2024-03-02T00:17:57;24.45;;;18.77;;
20567;SDS011;10442;49.932;11.592;2024-03-02T00:20:25;20.17;;;16.33;;
20567;SDS011;10442;49.932;11.592;2024-03-02T00:22:58;25.73;;;18.00;;
20567;SDS011;10442;49.932;11.592;2024-03-02T00:28:35;22.02;;;16.75;;
20567;SDS011;10442;49.932;11.592;2024-03-02T00:31:10;22.95;;;17.90;;
20567;SDS011;10442;49.932;11.592;2024-03-02T00:33:43;22.67;;;16.75;;
20567;SDS011;10442;49.932;11.592;2024-03-02T00:36:12;21.50;;;15.07;;
20567;SDS011;10442;49.932;11.592;2024-03-02T00:38:49;21.73;;;16.70;;
20567;SDS011;10442;49.932;11.592;2024-03-02T00:41:21;19.00;;;14.93;;
20567;SDS011;10442;49.932;11.592;2024-03-02T00:44:01;20.08;;;15.88;;
20567;SDS011;10442;49.932;11.592;2024-03-02T00:46:29;16.73;;;14.25;;
20567;SDS011;10442;49.932;11.592;2024-03-02T00:49:00;18.27;;;15.05;;
20567;SDS011;10442;49.932;11.592;2024-03-02T00:51:31;22.25;;;16.92;;
20567;SDS011;10442;49.932;11.592;2024-03-02T00:54:04;20.23;;;14.95;;
20567;SDS011;10442;49.932;11.592;2024-03-02T00:56:33;23.58;;;17.33;;
20567;SDS011;10442;49.932;11.592;2024-03-02T00:59:02;19.17;;;15.50;;
20567;SDS011;10442;49.932;11.592;2024-03-02T01:01:30;25.05;;;17.90;;
20567;SDS011;10442;49.932;11.592;2024-03-02T01:03:57;24.17;;;16.10;;
20567;SDS011;10442;49.932;11.592;2024-03-02T01:06:25;19.67;;;16.13;;
20567;SDS011;10442;49.932;11.592;2024-03-02T01:08:53;23.45;;;17.15;;
20567;SDS011;10442;49.932;11.592;2024-03-02T01:11:21;23.92;;;17.67;;
20567;SDS011;10442;49.932;11.592;2024-03-02T01:13:50;22.65;;;16.80;;
20567;SDS011;10442;49.932;11.592;2024-03-02T01:16:19;24.55;;;16.77;;
20567;SDS011;10442;49.932;11.592;2024-03-02T01:18:48;19.02;;;15.48;;
20567;SDS011;10442;49.932;11.592;2024-03-02T01:21:16;17.73;;;14.30;;
20567;SDS011;10442;49.932;11.592;2024-03-02T01:23:43;19.45;;;15.68;;
20567;SDS011;10442;49.932;11.592;2024-03-02T01:26:11;23.25;;;18.60;;
20567;SDS011;10442;49.932;11.592;2024-03-02T01:28:38;23.67;;;18.65;;
20567;SDS011;10442;49.932;11.592;2024-03-02T01:31:06;22.92;;;18.33;;
20567;SDS011;10442;49.932;11.592;2024-03-02T01:33:34;21.27;;;17.60;;
20567;SDS011;10442;49.932;11.592;2024-03-02T01:36:01;22.83;;;17.70;;
20567;SDS011;10442;49.932;11.592;2024-03-02T01:38:29;22.88;;;17.77;;
20567;SDS011;10442;49.932;11.592;2024-03-02T01:40:56;23.05;;;18.15;;
20567;SDS011;10442;49.932;11.592;2024-03-02T01:43:26;24.00;;;21.40;;
20567;SDS011;10442;49.932;11.592;2024-03-02T01:45:55;24.83;;;18.38;;
20567;SDS011;10442;49.932;11.592;2024-03-02T01:48:24;26.50;;;18.85;;
20567;SDS011;10442;49.932;11.592;2024-03-02T01:50:52;22.95;;;18.40;;
20567;SDS011;10442;49.932;11.592;2024-03-02T01:53:20;23.13;;;17.52;;
20567;SDS011;10442;49.932;11.592;2024-03-02T01:55:48;24.55;;;18.10;;
20567;SDS011;10442;49.932;11.592;2024-03-02T01:58:15;24.33;;;19.35;;
20567;SDS011;10442;49.932;11.592;2024-03-02T02:00:43;22.95;;;20.05;;
20567;SDS011;10442;49.932;11.592;2024-03-02T02:03:11;28.42;;;21.45;;
20567;SDS011;10442;49.932;11.592;2024-03-02T02:05:41;26.08;;;19.35;;
20567;SDS011;10442;49.932;11.592;2024-03-02T02:08:09;27.08;;;20.20;;
20567;SDS011;10442;49.932;11.592;2024-03-02T02:10:37;25.15;;;21.73;;
20567;SDS011;10442;49.932;11.592;2024-03-02T02:13:05;32.28;;;22.00;;
20567;SDS011;10442;49.932;11.592;2024-03-02T02:15:35;23.52;;;18.55;;
20567;SDS011;10442;49.932;11.592;2024-03-02T02:18:04;25.88;;;20.23;;
20567;SDS011;10442;49.932;11.592;2024-03-02T02:20:33;27.42;;;21.30;;
20567;SDS011;10442;49.932;11.592;2024-03-02T02:23:01;21.75;;;18.30;;
20567;SDS011;10442;49.932;11.592;2024-03-02T02:25:29;22.35;;;19.77;;
20567;SDS011;10442;49.932;11.592;2024-03-02T02:27:58;22.58;;;19.25;;
20567;SDS011;10442;49.932;11.592;2024-03-02T02:30:26;26.40;;;20.85;;
20567;SDS011;10442;49.932;11.592;2024-03-02T02:32:56;28.25;;;20.05;;
20567;SDS011;10442;49.932;11.592;2024-03-02T02:35:25;27.60;;;20.60;;
20567;SDS011;10442;49.932;11.592;2024-03-02T02:37:53;26.73;;;22.02;;
20567;SDS011;10442;49.932;11.592;2024-03-02T02:40:22;25.00;;;20.20;;
20567;SDS011;10442;49.932;11.592;2024-03-02T02:42:49;28.70;;;19.52;;
20567;SDS011;10442;49.932;11.592;2024-03-02T02:45:19;26.02;;;20.38;;
20567;SDS011;10442;49.932;11.592;2024-03-02T02:47:47;25.88;;;19.83;;
20567;SDS011;10442;49.932;11.592;2024-03-02T02:50:15;29.13;;;20.20;;
20567;SDS011;10442;49.932;11.592;2024-03-02T02:52:44;24.17;;;18.77;;
20567;SDS011;10442;49.932;11.592;2024-03-02T02:55:12;22.70;;;17.67;;
20567;SDS011;10442;49.932;11.592;2024-03-02T02:57:40;31.38;;;23.95;;
20567;SDS011;10442;49.932;11.592;2024-03-02T03:00:11;26.20;;;20.55;;
20567;SDS011;10442;49.932;11.592;2024-03-02T03:02:45;27.02;;;22.63;;
20567;SDS011;10442;49.932;11.592;2024-03-02T03:05:16;24.50;;;20.50;;
20567;SDS011;10442;49.932;11.592;2024-03-02T03:07:45;27.92;;;21.27;;
20567;SDS011;10442;49.932;11.592;2024-03-02T03:10:15;25.48;;;18.30;;
20567;SDS011;10442;49.932;11.592;2024-03-02T03:12:43;22.42;;;17.63;;
20567;SDS011;10442;49.932;11.592;2024-03-02T03:15:12;25.90;;;18.73;;
20567;SDS011;10442;49.932;11.592;2024-03-02T03:17:40;22.63;;;19.92;;
20567;SDS011;10442;49.932;11.592;2024-03-02T03:20:08;25.10;;;19.48;;
20567;SDS011;10442;49.932;11.592;2024-03-02T03:22:42;27.40;;;21.02;;
20567;SDS011;10442;49.932;11.592;2024-03-02T03:25:09;25.08;;;19.52;;
20567;SDS011;10442;49.932;11.592;2024-03-02T03:27:37;28.08;;;21.13;;
20567;SDS011;10442;49.932;11.592;2024-03-02T03:30:05;21.30;;;18.67;;
20567;SDS011;10442;49.932;11.592;2024-03-02T03:32:33;29.17;;;22.65;;
20567;SDS011;10442;49.932;11.592;2024-03-02T03:35:01;24.83;;;20.40;;
20567;SDS011;10442;49.932;11.592;2024-03-02T03:37:29;26.15;;;20.55;;
20567;SDS011;10442;49.932;11.592;2024-03-02T03:40:03;26.45;;;19.52;;
20567;SDS011;10442;49.932;11.592;2024-03-02T03:42:37;24.30;;;19.00;;
20567;SDS011;10442;49.932;11.592;2024-03-02T03:45:06;24.05;;;20.00;;
20567;SDS011;10442;49.932;11.592;2024-03-02T03:47:34;26.52;;;20.83;;
20567;SDS011;10442;49.932;11.592;2024-03-02T03:50:03;28.52;;;20.88;;
20567;SDS011;10442;49.932;11.592;2024-03-02T03:52:34;27.52;;;20.75;;
20567;SDS011;10442;49.932;11.592;2024-03-02T03:55:01;32.67;;;20.05;;
20567;SDS011;10442;49.932;11.592;2024-03-02T03:57:28;28.75;;;20.52;;
20567;SDS011;10442;49.932;11.592;2024-03-02T03:59:56;26.83;;;20.63;;
20567;SDS011;10442;49.932;11.592;2024-03-02T04:02:23;24.23;;;20.17;;
20567;SDS011;10442;49.932;11.592;2024-03-02T04:04:52;25.95;;;19.05;;
20567;SDS011;10442;49.932;11.592;2024-03-02T04:07:19;22.25;;;18.17;;
20567;SDS011;10442;49.932;11.592;2024-03-02T04:09:47;18.00;;;15.57;;
20567;SDS011;10442;49.932;11.592;2024-03-02T04:12:15;22.85;;;18.00;;
20567;SDS011;10442;49.932;11.592;2024-03-02T04:14:45;25.15;;;20.10;;
20567;SDS011;10442;49.932;11.592;2024-03-02T04:17:12;26.10;;;18.17;;
20567;SDS011;10442;49.932;11.592;2024-03-02T04:19:40;26.80;;;20.52;;
20567;SDS011;10442;49.932;11.592;2024-03-02T04:22:07;24.48;;;19.55;;
20567;SDS011;10442;49.932;11.592;2024-03-02T04:24:47;23.50;;;17.92;;
20567;SDS011;10442;49.932;11.592;2024-03-02T04:27:14;21.10;;;18.08;;
20567;SDS011;10442;49.932;11.592;2024-03-02T04:29:41;25.58;;;19.63;;
20567;SDS011;10442;49.932;11.592;2024-03-02T04:32:09;20.50;;;18.30;;
20567;SDS011;10442;49.932;11.592;2024-03-02T04:34:36;22.23;;;18.70;;
20567;SDS011;10442;49.932;11.592;2024-03-02T04:37:04;20.75;;;18.33;;
20567;SDS011;10442;49.932;11.592;2024-03-02T04:39:31;23.65;;;18.95;;
20567;SDS011;10442;49.932;11.592;2024-03-02T04:42:02;24.17;;;20.33;;
20567;SDS011;10442;49.932;11.592;2024-03-02T04:44:29;23.27;;;19.33;;
20567;SDS011;10442;49.932;11.592;2024-03-02T04:46:57;23.95;;;17.50;;
20567;SDS011;10442;49.932;11.592;2024-03-02T04:49:25;20.40;;;17.95;;
20567;SDS011;10442;49.932;11.592;2024-03-02T04:51:53;23.42;;;19.63;;
20567;SDS011;10442;49.932;11.592;2024-03-02T04:54:21;20.80;;;18.65;;
20567;SDS011;10442;49.932;11.592;2024-03-02T04:56:48;24.30;;;20.75;;
20567;SDS011;10442;49.932;11.592;2024-03-02T04:59:19;24.50;;;18.55;;
20567;SDS011;10442;49.932;11.592;2024-03-02T05:01:46;18.52;;;16.58;;
20567;SDS011;10442;49.932;11.592;2024-03-02T05:04:14;25.15;;;19.10;;
20567;SDS011;10442;49.932;11.592;2024-03-02T05:06:42;18.70;;;16.80;;
20567;SDS011;10442;49.932;11.592;2024-03-02T05:09:09;19.58;;;17.40;;
20567;SDS011;10442;49.932;11.592;2024-03-02T05:11:37;24.58;;;19.05;;
20567;SDS011;10442;49.932;11.592;2024-03-02T05:14:04;25.63;;;20.33;;
20567;SDS011;10442;49.932;11.592;2024-03-02T05:16:33;21.52;;;18.33;;
20567;SDS011;10442;49.932;11.592;2024-03-02T05:19:05;20.95;;;17.77;;
20567;SDS011;10442;49.932;11.592;2024-03-02T05:21:33;21.27;;;18.77;;
20567;SDS011;10442;49.932;11.592;2024-03-02T05:24:02;19.13;;;17.10;;
20567;SDS011;10442;49.932;11.592;2024-03-02T05:26:31;21.42;;;18.02;;
20567;SDS011;10442;49.932;11.592;2024-03-02T05:28:58;20.15;;;16.60;;
20567;SDS011;10442;49.932;11.592;2024-03-02T05:31:25;21.17;;;17.23;;
20567;SDS011;10442;49.932;11.592;2024-03-02T05:33:55;19.58;;;16.85;;
20567;SDS011;10442;49.932;11.592;2024-03-02T05:36:24;19.83;;;17.63;;
20567;SDS011;10442;49.932;11.592;2024-03-02T05:38:52;19.38;;;17.35;;
20567;SDS011;10442;49.932;11.592;2024-03-02T05:41:20;20.65;;;14.98;;
20567;SDS011;10442;49.932;11.592;2024-03-02T05:43:47;19.83;;;16.27;;
20567;SDS011;10442;49.932;11.592;2024-03-02T05:46:15;19.25;;;17.08;;
20567;SDS011;10442;49.932;11.592;2024-03-02T05:48:43;18.42;;;15.82;;
20567;SDS011;10442;49.932;11.592;2024-03-02T05:51:10;22.25;;;17.08;;
20567;SDS011;10442;49.932;11.592;2024-03-02T05:53:38;18.08;;;16.08;;
20567;SDS011;10442;49.932;11.592;2024-03-02T05:56:06;21.13;;;17.52;;
20567;SDS011;10442;49.932;11.592;2024-03-02T05:58:34;17.77;;;15.93;;
20567;SDS011;10442;49.932;11.592;2024-03-02T06:01:21;17.17;;;15.20;;
20567;SDS011;10442;49.932;11.592;2024-03-02T06:03:55;16.80;;;15.02;;
20567;SDS011;10442;49.932;11.592;2024-03-02T06:06:23;15.32;;;13.75;;
20567;SDS011;10442;49.932;11.592;2024-03-02T06:08:51;15.13;;;13.52;;
20567;SDS011;10442;49.932;11.592;2024-03-02T06:11:20;16.35;;;14.55;;
20567;SDS011;10442;49.932;11.592;2024-03-02T06:13:48;15.45;;;13.75;;
20567;SDS011;10442;49.932;11.592;2024-03-02T06:16:15;14.38;;;12.88;;
20567;SDS011;10442;49.932;11.592;2024-03-02T06:18:43;14.52;;;13.05;;
20567;SDS011;10442;49.932;11.592;2024-03-02T06:21:13;15.35;;;13.63;;
20567;SDS011;10442;49.932;11.592;2024-03-02T06:23:40;13.23;;;11.80;;
20567;SDS011;10442;49.932;11.592;2024-03-02T06:26:08;12.50;;;11.20;;
20567;SDS011;10442;49.932;11.592;2024-03-02T06:28:35;12.48;;;11.00;;
20567;SDS011;10442;49.932;11.592;2024-03-02T06:31:03;11.80;;;10.63;;
20567;SDS011;10442;49.932;11.592;2024-03-02T06:33:31;11.32;;;10.18;;
20567;SDS011;10442;49.932;11.592;2024-03-02T06:35:58;12.32;;;9.95;;
20567;SDS011;10442;49.932;11.592;2024-03-02T06:38:26;13.18;;;11.75;;
20567;SDS011;10442;49.932;11.592;2024-03-02T06:40:54;11.02;;;10.00;;
20567;SDS011;10442;49.932;11.592;2024-03-02T06:43:24;11.43;;;10.32;;
20567;SDS011;10442;49.932;11.592;2024-03-02T06:45:52;10.95;;;9.95;;
20567;SDS011;10442;49.932;11.592;2024-03-02T06:48:20;10.73;;;9.63;;
20567;SDS011;10442;49.932;11.592;2024-03-02T06:50:48;11.27;;;10.15;;
20567;SDS011;10442;49.932;11.592;2024-03-02T06:53:16;10.27;;;9.35;;
20567;SDS011;10442;49.932;11.592;2024-03-02T06:55:44;10.85;;;9.20;;
20567;SDS011;10442;49.932;11.592;2024-03-02T06:58:13;8.82;;;8.07;;
20567;SDS011;10442;49.932;11.592;2024-03-02T07:00:44;11.90;;;10.80;;
20567;SDS011;10442;49.932;11.592;2024-03-02T07:03:11;10.35;;;8.88;;
20567;SDS011;10442;49.932;11.592;2024-03-02T07:05:39;10.27;;;9.32;;
20567;SDS011;10442;49.932;11.592;2024-03-02T07:08:08;11.00;;;10.05;;
20567;SDS011;10442;49.932;11.592;2024-03-02T07:10:35;10.90;;;9.90;;
20567;SDS011;10442;49.932;11.592;2024-03-02T07:13:03;10.23;;;9.23;;
20567;SDS011;10442;49.932;11.592;2024-03-02T07:15:30;10.20;;;9.05;;
20567;SDS011;10442;49.932;11.592;2024-03-02T07:18:17;10.07;;;9.18;;
20567;SDS011;10442;49.932;11.592;2024-03-02T07:20:48;12.02;;;9.57;;
20567;SDS011;10442;49.932;11.592;2024-03-02T07:23:16;11.38;;;10.20;;
20567;SDS011;10442;49.932;11.592;2024-03-02T07:25:44;12.73;;;11.43;;
20567;SDS011;10442;49.932;11.592;2024-03-02T07:28:14;13.95;;;12.52;;
20567;SDS011;10442;49.932;11.592;2024-03-02T07:30:42;12.27;;;10.68;;
20567;SDS011;10442;49.932;11.592;2024-03-02T07:33:10;12.30;;;11.00;;
20567;SDS011;10442;49.932;11.592;2024-03-02T07:35:37;12.02;;;10.82;;
20567;SDS011;10442;49.932;11.592;2024-03-02T07:38:05;12.50;;;11.18;;
20567;SDS011;10442;49.932;11.592;2024-03-02T07:40:34;13.13;;;11.77;;
20567;SDS011;10442;49.932;11.592;2024-03-02T07:43:02;12.00;;;10.30;;
20567;SDS011;10442;49.932;11.592;2024-03-02T07:45:29;12.98;;;11.77;;
20567;SDS011;10442;49.932;11.592;2024-03-02T07:47:56;12.98;;;11.73;;
20567;SDS011;10442;49.932;11.592;2024-03-02T07:50:25;14.85;;;13.40;;
20567;SDS011;10442;49.932;11.592;2024-03-02T07:52:54;12.05;;;10.85;;
20567;SDS011;10442;49.932;11.592;2024-03-02T07:55:22;11.68;;;10.00;;
20567;SDS011;10442;49.932;11.592;2024-03-02T07:57:51;12.35;;;11.07;;
20567;SDS011;10442;49.932;11.592;2024-03-02T08:00:20;11.88;;;10.68;;
20567;SDS011;10442;49.932;11.592;2024-03-02T08:02:52;12.02;;;10.85;;
20567;SDS011;10442;49.932;11.592;2024-03-02T08:05:20;12.25;;;10.95;;
20567;SDS011;10442;49.932;11.592;2024-03-02T08:07:49;13.30;;;11.90;;
20567;SDS011;10442;49.932;11.592;2024-03-02T08:10:19;13.18;;;11.77;;
20567;SDS011;10442;49.932;11.592;2024-03-02T08:12:48;13.15;;;11.90;;
20567;SDS011;10442;49.932;11.592;2024-03-02T08:15:16;12.80;;;11.60;;
20567;SDS011;10442;49.932;11.592;2024-03-02T08:17:43;14.55;;;12.20;;
20567;SDS011;10442;49.932;11.592;2024-03-02T08:20:17;12.27;;;11.07;;
20567;SDS011;10442;49.932;11.592;2024-03-02T08:22:45;13.75;;;12.07;;
20567;SDS011;10442;49.932;11.592;2024-03-02T08:25:14;15.13;;;13.52;;
20567;SDS011;10442;49.932;11.592;2024-03-02T08:27:42;12.63;;;11.43;;
20567;SDS011;10442;49.932;11.592;2024-03-02T08:30:10;14.10;;;12.70;;
20567;SDS011;10442;49.932;11.592;2024-03-02T08:32:38;13.32;;;12.02;;
20567;SDS011;10442;49.932;11.592;2024-03-02T08:35:07;14.38;;;12.88;;
20567;SDS011;10442;49.932;11.592;2024-03-02T08:37:37;13.82;;;12.40;;
20567;SDS011;10442;49.932;11.592;2024-03-02T08:40:07;13.23;;;11.85;;
20567;SDS011;10442;49.932;11.592;2024-03-02T08:42:35;11.88;;;10.63;;
20567;SDS011;10442;49.932;11.592;2024-03-02T08:45:03;12.02;;;10.90;;
20567;SDS011;10442;49.932;11.592;2024-03-02T08:47:31;12.88;;;11.52;;
20567;SDS011;10442;49.932;11.592;2024-03-02T08:50:00;13.45;;;12.10;;
20567;SDS011;10442;49.932;11.592;2024-03-02T08:52:28;11.80;;;10.68;;
20567;SDS011;10442;49.932;11.592;2024-03-02T08:54:56;13.00;;;11.70;;
20567;SDS011;10442;49.932;11.592;2024-03-02T08:57:24;12.13;;;11.02;;
20567;SDS011;10442;49.932;11.592;2024-03-02T08:59:52;12.98;;;11.73;;
20567;SDS011;10442;49.932;11.592;2024-03-02T09:02:20;12.40;;;11.07;;
20567;SDS011;10442;49.932;11.592;2024-03-02T09:04:50;12.23;;;11.13;;
20567;SDS011;10442;49.932;11.592;2024-03-02T09:07:18;11.43;;;10.32;;
20567;SDS011;10442;49.932;11.592;2024-03-02T09:09:45;13.63;;;11.63;;
20567;SDS011;10442;49.932;11.592;2024-03-02T09:12:12;11.20;;;10.20;;
20567;SDS011;10442;49.932;11.592;2024-03-02T09:14:41;11.70;;;10.60;;
20567;SDS011;10442;49.932;11.592;2024-03-02T09:17:09;12.52;;;11.23;;
20567;SDS011;10442;49.932;11.592;2024-03-02T09:19:39;11.02;;;10.00;;
20567;SDS011;10442;49.932;11.592;2024-03-02T09:22:10;12.82;;;11.52;;
20567;SDS011;10442;49.932;11.592;2024-03-02T09:24:37;13.30;;;11.90;;
20567;SDS011;10442;49.932;11.592;2024-03-02T09:27:05;11.15;;;10.13;;
20567;SDS011;10442;49.932;11.592;2024-03-02T09:29:33;12.98;;;11.60;;
20567;SDS011;10442;49.932;11.592;2024-03-02T09:32:00;11.80;;;10.60;;
20567;SDS011;10442;49.932;11.592;2024-03-02T09:34:29;11.30;;;10.20;;
20567;SDS011;10442;49.932;11.592;2024-03-02T09:36:57;12.32;;;11.02;;
20567;SDS011;10442;49.932;11.592;2024-03-02T09:39:25;9.32;;;8.52;;
20567;SDS011;10442;49.932;11.592;2024-03-02T09:41:53;11.00;;;9.48;;
20567;SDS011;10442;49.932;11.592;2024-03-02T09:44:21;10.32;;;9.32;;
20567;SDS011;10442;49.932;11.592;2024-03-02T09:46:49;10.20;;;9.25;;
20567;SDS011;10442;49.932;11.592;2024-03-02T09:49:17;10.50;;;9.57;;
20567;SDS011;10442;49.932;11.592;2024-03-02T09:51:46;10.07;;;9.15;;
20567;SDS011;10442;49.932;11.592;2024-03-02T09:54:16;8.68;;;7.97;;
20567;SDS011;10442;49.932;11.592;2024-03-02T09:56:49;8.68;;;7.85;;
20567;SDS011;10442;49.932;11.592;2024-03-02T09:59:18;9.65;;;8.68;;
20567;SDS011;10442;49.932;11.592;2024-03-02T10:01:55;9.00;;;8.25;;
20567;SDS011;10442;49.932;11.592;2024-03-02T10:04:28;8.73;;;7.85;;
20567;SDS011;10442;49.932;11.592;2024-03-02T10:07:32;9.80;;;8.10;;
20567;SDS011;10442;49.932;11.592;2024-03-02T10:09:52;7.75;;;7.00;;
20567;SDS011;10442;49.932;11.592;2024-03-02T10:12:20;9.57;;;7.13;;
20567;SDS011;10442;49.932;11.592;2024-03-02T10:14:47;8.02;;;6.80;;
20567;SDS011;10442;49.932;11.592;2024-03-02T10:17:19;15.45;;;10.05;;
20567;SDS011;10442;49.932;11.592;2024-03-02T10:19:48;35.22;;;15.73;;
20567;SDS011;10442;49.932;11.592;2024-03-02T10:22:16;9.77;;;8.77;;
20567;SDS011;10442;49.932;11.592;2024-03-02T10:24:44;9.07;;;8.18;;
20567;SDS011;10442;49.932;11.592;2024-03-02T10:27:16;8.40;;;7.70;;
20567;SDS011;10442;49.932;11.592;2024-03-02T10:29:47;10.00;;;9.10;;
20567;SDS011;10442;49.932;11.592;2024-03-02T10:32:16;9.40;;;8.55;;
20567;SDS011;10442;49.932;11.592;2024-03-02T10:34:45;7.82;;;6.90;;
20567;SDS011;10442;49.932;11.592;2024-03-02T10:37:14;10.18;;;9.13;;
20567;SDS011;10442;49.932;11.592;2024-03-02T10:39:45;10.65;;;9.57;;
20567;SDS011;10442;49.932;11.592;2024-03-02T10:42:13;10.82;;;9.82;;
20567;SDS011;10442;49.932;11.592;2024-03-02T10:44:41;10.25;;;9.25;;
20567;SDS011;10442;49.932;11.592;2024-03-02T10:47:09;11.40;;;10.23;;
20567;SDS011;10442;49.932;11.592;2024-03-02T10:49:41;12.02;;;10.73;;
20567;SDS011;10442;49.932;11.592;2024-03-02T10:52:10;11.80;;;10.60;;
20567;SDS011;10442;49.932;11.592;2024-03-02T10:54:38;12.88;;;11.10;;
20567;SDS011;10442;49.932;11.592;2024-03-02T10:57:07;12.32;;;9.98;;
20567;SDS011;10442;49.932;11.592;2024-03-02T10:59:44;12.43;;;10.85;;
20567;SDS011;10442;49.932;11.592;2024-03-02T11:02:19;11.52;;;9.43;;
20567;SDS011;10442;49.932;11.592;2024-03-02T11:04:50;12.32;;;11.10;;
20567;SDS011;10442;49.932;11.592;2024-03-02T11:07:21;13.70;;;12.18;;
20567;SDS011;10442;49.932;11.592;2024-03-02T11:09:54;14.13;;;12.68;;
20567;SDS011;10442;49.932;11.592;2024-03-02T11:12:29;11.65;;;10.43;;
20567;SDS011;10442;49.932;11.592;2024-03-02T11:15:04;14.18;;;12.77;;
20567;SDS011;10442;49.932;11.592;2024-03-02T11:17:37;14.88;;;12.45;;
20567;SDS011;10442;49.932;11.592;2024-03-02T11:20:07;15.20;;;13.57;;
20567;SDS011;10442;49.932;11.592;2024-03-02T11:22:36;15.63;;;12.07;;
20567;SDS011;10442;49.932;11.592;2024-03-02T11:25:04;14.75;;;13.18;;
20567;SDS011;10442;49.932;11.592;2024-03-02T11:33:01;13.20;;;11.82;;
20567;SDS011;10442;49.932;11.592;2024-03-02T11:35:44;13.20;;;11.80;;
20567;SDS011;10442;49.932;11.592;2024-03-02T11:38:15;18.83;;;14.60;;
20567;SDS011;10442;49.932;11.592;2024-03-02T11:40:42;14.13;;;12.73;;
20567;SDS011;10442;49.932;11.592;2024-03-02T11:43:10;18.17;;;14.30;;
20567;SDS011;10442;49.932;11.592;2024-03-02T11:45:38;16.60;;;14.90;;
20567;SDS011;10442;49.932;11.592;2024-03-02T11:48:12;17.65;;;14.57;;
20567;SDS011;10442;49.932;11.592;2024-03-02T11:50:43;21.20;;;16.25;;
20567;SDS011;10442;49.932;11.592;2024-03-02T11:53:14;18.45;;;15.75;;
20567;SDS011;10442;49.932;11.592;2024-03-02T11:55:41;15.88;;;14.15;;
20567;SDS011;10442;49.932;11.592;2024-03-02T11:58:16;16.33;;;14.60;;
20567;SDS011;10442;49.932;11.592;2024-03-02T12:00:45;16.88;;;14.70;;
20567;SDS011;10442;49.932;11.592;2024-03-02T12:03:14;17.30;;;14.23;;
20567;SDS011;10442;49.932;11.592;2024-03-02T12:05:42;18.65;;;15.25;;
20567;SDS011;10442;49.932;11.592;2024-03-02T12:08:10;16.65;;;14.23;;
20567;SDS011;10442;49.932;11.592;2024-03-02T12:10:41;18.38;;;14.98;;
20567;SDS011;10442;49.932;11.592;2024-03-02T12:13:10;16.13;;;14.05;;
20567;SDS011;10442;49.932;11.592;2024-03-02T12:15:38;17.02;;;15.23;;
20567;SDS011;10442;49.932;11.592;2024-03-02T12:18:09;15.98;;;14.15;;
20567;SDS011;10442;49.932;11.592;2024-03-02T12:20:36;12.98;;;11.65;;
20567;SDS011;10442;49.932;11.592;2024-03-02T12:23:04;17.33;;;14.13;;
20567;SDS011;10442;49.932;11.592;2024-03-02T12:25:33;15.57;;;13.50;;
20567;SDS011;10442;49.932;11.592;2024-03-02T12:28:01;15.15;;;13.50;;
20567;SDS011;10442;49.932;11.592;2024-03-02T12:30:30;18.08;;;15.43;;
20567;SDS011;10442;49.932;11.592;2024-03-02T12:33:03;16.27;;;13.38;;
20567;SDS011;10442;49.932;11.592;2024-03-02T12:35:31;17.08;;;14.50;;
20567;SDS011;10442;49.932;11.592;2024-03-02T12:37:59;18.42;;;15.43;;
20567;SDS011;10442;49.932;11.592;2024-03-02T12:40:27;19.17;;;15.80;;
20567;SDS011;10442;49.932;11.592;2024-03-02T12:42:54;17.90;;;14.98;;
20567;SDS011;10442;49.932;11.592;2024-03-02T12:45:22;18.58;;;14.88;;
20567;SDS011;10442;49.932;11.592;2024-03-02T12:47:52;14.93;;;13.27;;
20567;SDS011;10442;49.932;11.592;2024-03-02T12:50:20;18.15;;;14.77;;
20567;SDS011;10442;49.932;11.592;2024-03-02T12:52:50;19.40;;;14.50;;
20567;SDS011;10442;49.932;11.592;2024-03-02T12:55:20;19.98;;;16.42;;
20567;SDS011;10442;49.932;11.592;2024-03-02T12:57:51;16.27;;;14.60;;
20567;SDS011;10442;49.932;11.592;2024-03-02T13:00:19;20.67;;;16.80;;
20567;SDS011;10442;49.932;11.592;2024-03-02T13:02:50;18.52;;;16.52;;
20567;SDS011;10442;49.932;11.592;2024-03-02T13:05:19;17.92;;;15.68;;
20567;SDS011;10442;49.932;11.592;2024-03-02T13:07:48;16.70;;;14.63;;
20567;SDS011;10442;49.932;11.592;2024-03-02T13:10:16;22.17;;;16.55;;
20567;SDS011;10442;49.932;11.592;2024-03-02T13:12:44;18.65;;;14.65;;
20567;SDS011;10442;49.932;11.592;2024-03-02T13:15:13;18.55;;;14.88;;
20567;SDS011;10442;49.932;11.592;2024-03-02T13:17:44;20.65;;;16.10;;
20567;SDS011;10442;49.932;11.592;2024-03-02T13:20:13;18.70;;;16.17;;
20567;SDS011;10442;49.932;11.592;2024-03-02T13:22:42;22.02;;;15.65;;
20567;SDS011;10442;49.932;11.592;2024-03-02T13:25:09;21.33;;;16.42;;
20567;SDS011;10442;49.932;11.592;2024-03-02T13:27:39;20.67;;;16.00;;
20567;SDS011;10442;49.932;11.592;2024-03-02T13:30:08;18.70;;;14.93;;
20567;SDS011;10442;49.932;11.592;2024-03-02T13:32:37;16.88;;;14.73;;
20567;SDS011;10442;49.932;11.592;2024-03-02T13:35:04;15.15;;;13.55;;
20567;SDS011;10442;49.932;11.592;2024-03-02T13:37:33;15.98;;;14.38;;
20567;SDS011;10442;49.932;11.592;2024-03-02T13:40:00;18.30;;;15.93;;
20567;SDS011;10442;49.932;11.592;2024-03-02T13:42:29;16.23;;;14.52;;
20567;SDS011;10442;49.932;11.592;2024-03-02T13:44:57;18.40;;;14.73;;
20567;SDS011;10442;49.932;11.592;2024-03-02T13:47:26;21.13;;;14.30;;
20567;SDS011;10442;49.932;11.592;2024-03-02T13:49:54;22.95;;;16.98;;
20567;SDS011;10442;49.932;11.592;2024-03-02T13:52:22;16.75;;;13.40;;
20567;SDS011;10442;49.932;11.592;2024-03-02T13:54:49;20.75;;;13.93;;
20567;SDS011;10442;49.932;11.592;2024-03-02T13:57:19;17.38;;;15.50;;
20567;SDS011;10442;49.932;11.592;2024-03-02T13:59:51;14.35;;;11.90;;
20567;SDS011;10442;49.932;11.592;2024-03-02T14:02:20;16.25;;;14.52;;
20567;SDS011;10442;49.932;11.592;2024-03-02T14:04:48;19.08;;;16.40;;
20567;SDS011;10442;49.932;11.592;2024-03-02T14:07:17;19.90;;;14.73;;
20567;SDS011;10442;49.932;11.592;2024-03-02T14:09:46;20.67;;;15.75;;
20567;SDS011;10442;49.932;11.592;2024-03-02T14:12:13;17.67;;;13.43;;
20567;SDS011;10442;49.932;11.592;2024-03-02T14:14:42;18.50;;;13.55;;
20567;SDS011;10442;49.932;11.592;2024-03-02T14:17:09;16.25;;;13.50;;
20567;SDS011;10442;49.932;11.592;2024-03-02T14:19:41;18.08;;;14.57;;
20567;SDS011;10442;49.932;11.592;2024-03-02T14:22:09;16.90;;;14.05;;
20567;SDS011;10442;49.932;11.592;2024-03-02T14:24:37;13.40;;;11.98;;
20567;SDS011;10442;49.932;11.592;2024-03-02T14:27:05;17.73;;;14.98;;
20567;SDS011;10442;49.932;11.592;2024-03-02T14:29:51;17.35;;;13.55;;
20567;SDS011;10442;49.932;11.592;2024-03-02T14:32:20;17.73;;;15.25;;